Terminal Aerodrome Forecast
Issued by NWS

Home | Current Version | Previous Version | Text Only | Print | Product List | Glossary On
Versions: 1 2 3 4 5 6 7 8 9 10 11 12 13 14 15 16 17 18 19 20 21 22 23 24 25 26
000
FTUS46 KSEW 252329
TAFHQM
TAF
KHQM 252329Z 2600/2624 VRB03KT 2SM -DZ BR SCT009 OVC020
      TEMPO 2600/2603 BKN009 OVC020
     FM260300 VRB02KT 5SM BR SCT009 BKN025 OVC050
     FM260900 00000KT 2SM BR OVC005
     FM261200 00000KT 1/2SM FG VV002
     FM261800 07004KT 3SM BR BKN005 BKN250
     FM262000 25009KT P6SM SCT250=

USA.gov is the U.S. government's official web portal to all federal, state and local government web resources and services.